Time;durP1;ratioP1;P1;durP2;ratioP2;P2;SDS_P1;SDS_P2;PMS_P1;PMS_P2;Temp;Humidity;BMP_temperature;BMP_pressure;BME280_temperature;BME280_humidity;BME280_pressure;Samples;Min_cycle;Max_cycle;Signal;HPM_P1;HPM_P2
2022/02/02 00:02:31;;;;;;;0.20;0.20;;;;;;;19.07;28.48;94387.53;4896424;29;20138;-67
2022/02/02 00:05:13;;;;;;;0.40;0.28;;;;;;;19.09;28.22;94377.53;4913559;29;20044;-67
2022/02/02 00:07:46;;;;;;;0.20;0.20;;;;;;;19.08;28.54;94392.56;4899277;29;20044;-67
2022/02/02 00:10:35;;;;;;;0.52;0.20;;;;;;;19.08;28.40;94382.00;4891162;29;20040;-67
2022/02/02 00:13:13;;;;;;;0.20;0.20;;;;;;;19.07;28.52;94367.22;4899922;29;20046;-67
2022/02/02 00:15:59;;;;;;;0.10;0.10;;;;;;;19.07;28.65;94359.31;4894582;29;20099;-67
2022/02/02 00:21:18;;;;;;;0.40;0.30;;;;;;;19.06;28.56;94357.75;4895979;29;20046;-67
2022/02/02 00:23:48;;;;;;;0.25;0.25;;;;;;;19.07;28.41;94351.41;4905233;29;20032;-68
2022/02/02 00:26:19;;;;;;;0.20;0.20;;;;;;;19.10;28.77;94358.81;4923595;29;20027;-67
2022/02/02 00:28:46;;;;;;;0.20;0.20;;;;;;;19.07;28.56;94367.22;4904112;29;20067;-67
2022/02/02 00:31:18;;;;;;;0.35;0.20;;;;;;;19.09;28.91;94378.31;4918029;29;20028;-67
2022/02/02 00:34:01;;;;;;;0.20;0.20;;;;;;;19.08;28.63;94358.28;4916976;29;20036;-67
2022/02/02 00:36:34;;;;;;;0.20;0.20;;;;;;;19.11;28.71;94359.63;4919399;29;20337;-67
2022/02/02 00:39:00;;;;;;;0.20;0.20;;;;;;;19.08;28.87;94358.28;4915904;29;20032;-67
2022/02/02 00:41:25;;;;;;;0.20;0.20;;;;;;;19.09;28.70;94375.66;4906120;29;20051;-67
2022/02/02 00:43:58;;;;;;;0.38;0.22;;;;;;;19.08;28.74;94360.13;4917180;29;20023;-67
2022/02/02 00:46:27;;;;;;;0.20;0.20;;;;;;;19.03;29.02;94363.50;4906255;29;20027;-67
2022/02/02 00:49:00;;;;;;;0.30;0.30;;;;;;;19.07;28.92;94361.94;4911021;29;20040;-67
2022/02/02 00:51:56;;;;;;;0.20;0.20;;;;;;;19.01;28.91;94351.63;4918738;29;20063;-67
2022/02/02 00:54:22;;;;;;;0.20;0.20;;;;;;;19.02;28.94;94346.13;4916033;29;20032;-67
2022/02/02 00:56:48;;;;;;;0.40;0.20;;;;;;;19.00;28.99;94357.94;4906702;29;20039;-67
2022/02/02 00:59:14;;;;;;;0.57;0.20;;;;;;;18.99;28.97;94372.97;4895877;29;20039;-67
2022/02/02 01:01:39;;;;;;;0.55;0.20;;;;;;;18.99;29.08;94377.44;4890764;29;20178;-67
2022/02/02 01:04:05;;;;;;;1.05;0.22;;;;;;;18.96;29.16;94373.44;4919278;29;20028;-67
2022/02/02 01:06:36;;;;;;;0.28;0.28;;;;;;;18.96;29.19;94352.38;4913568;29;20024;-67
2022/02/02 01:20:36;;;;;;;0.63;0.30;;;;;;;19.00;29.20;94369.28;4919429;29;20027;-67
2022/02/02 01:28:31;;;;;;;0.20;0.20;;;;;;;19.01;29.17;94380.63;4918456;29;20212;-67
2022/02/02 01:30:57;;;;;;;0.20;0.10;;;;;;;19.00;29.30;94374.56;4913892;29;20027;-67
2022/02/02 01:33:25;;;;;;;0.20;0.20;;;;;;;18.98;29.31;94371.34;4904264;29;20051;-67
2022/02/02 01:35:50;;;;;;;0.22;0.20;;;;;;;19.02;29.15;94379.56;4937948;29;20035;-67
2022/02/02 01:38:16;;;;;;;0.20;0.20;;;;;;;19.02;29.25;94379.56;4916032;29;20050;-67
2022/02/02 01:40:50;;;;;;;0.20;0.20;;;;;;;19.04;29.22;94372.19;4896351;29;20046;-67
2022/02/02 01:43:30;;;;;;;0.40;0.17;;;;;;;19.05;29.29;94365.91;4905742;29;20079;-67
2022/02/02 01:46:02;;;;;;;0.20;0.20;;;;;;;19.14;29.21;94367.81;4915158;29;20131;-67
2022/02/02 01:55:55;;;;;;;0.20;0.20;;;;;;;19.14;29.21;94349.38;4918787;29;20179;-67
2022/02/02 01:58:38;;;;;;;0.28;0.20;;;;;;;19.20;29.14;94341.50;4901709;29;20032;-67
2022/02/02 02:01:09;;;;;;;0.20;0.20;;;;;;;19.19;29.19;94340.72;4918865;29;20039;-67
2022/02/02 02:03:43;;;;;;;0.20;0.20;;;;;;;19.17;29.35;94348.06;4882645;29;20054;-67
2022/02/02 02:06:08;;;;;;;0.13;0.13;;;;;;;19.17;29.34;94350.69;4913485;29;20032;-67
2022/02/02 02:08:36;;;;;;;0.38;0.20;;;;;;;19.18;29.29;94349.66;4894585;29;20040;-67
2022/02/02 02:11:04;;;;;;;0.20;0.20;;;;;;;19.18;29.20;94343.59;4898048;29;20048;-67
2022/02/02 02:16:20;;;;;;;0.20;0.20;;;;;;;19.27;29.18;94357.91;4913300;29;20047;-67
2022/02/02 02:18:45;;;;;;;1.00;0.20;;;;;;;19.25;29.23;94347.59;4901232;29;20048;-68
2022/02/02 02:21:14;;;;;;;0.28;0.25;;;;;;;19.27;29.20;94361.34;4888224;29;20048;-67
2022/02/02 02:23:39;;;;;;;0.50;0.40;;;;;;;19.28;29.25;94348.94;4901385;29;20068;-67
2022/02/02 02:26:06;;;;;;;0.22;0.22;;;;;;;19.30;29.10;94368.72;4885559;29;20036;-68
2022/02/02 02:28:56;;;;;;;0.30;0.30;;;;;;;19.26;29.47;94366.84;4909967;29;20039;-67
2022/02/02 02:31:39;;;;;;;0.80;0.30;;;;;;;19.37;29.05;94371.16;4913016;29;20047;-67
2022/02/02 02:55:55;;;;;;;0.20;0.20;;;;;;;19.35;29.39;94360.06;4918961;29;20066;-67
2022/02/02 03:30:59;;;;;;;0.20;0.20;;;;;;;19.31;29.50;94351.88;4912448;29;20054;-68
2022/02/02 03:57:54;;;;;;;;;;;;;;;;;;;;;
2022/02/02 04:02:51;;;;;;;0.30;0.30;;;;;;;19.33;29.85;94354.25;4907988;29;20039;-67
2022/02/02 04:05:39;;;;;;;0.20;0.20;;;;;;;19.33;29.80;94367.44;4901346;29;20032;-67
2022/02/02 04:08:28;;;;;;;0.25;0.20;;;;;;;19.32;29.51;94369.28;4923601;29;20115;-67
2022/02/02 04:10:51;;;;;;;0.20;0.20;;;;;;;19.31;29.52;94377.44;4900065;29;20047;-67
2022/02/02 05:07:31;;;;;;;0.20;0.20;;;;;;;19.23;30.14;94325.16;4913507;29;20032;-67
2022/02/02 05:50:16;;;;;;;0.20;0.20;;;;;;;19.24;30.36;94337.31;4939801;29;20130;-67
2022/02/02 05:52:43;;;;;;;0.30;0.30;;;;;;;19.21;30.35;94328.06;4919611;29;20036;-68
2022/02/02 05:55:11;;;;;;;0.38;0.20;;;;;;;19.26;30.60;94330.72;4934398;29;20031;-68
2022/02/02 05:57:47;;;;;;;0.30;0.30;;;;;;;19.23;30.38;94325.97;4928898;29;20038;-67
2022/02/02 06:00:13;;;;;;;0.20;0.20;;;;;;;19.25;30.40;94317.81;4928878;29;20039;-67
2022/02/02 06:02:39;;;;;;;0.22;0.20;;;;;;;19.23;30.37;94331.25;4917338;29;20039;-67
2022/02/02 06:05:06;;;;;;;0.20;0.20;;;;;;;19.22;30.48;94340.19;4920745;29;20027;-67
2022/02/02 06:07:36;;;;;;;0.20;0.20;;;;;;;19.19;30.48;94347.81;4898471;29;20100;-67
2022/02/02 06:10:07;;;;;;;0.20;0.20;;;;;;;19.24;30.65;94334.66;4914540;29;20135;-69
2022/02/02 06:12:33;;;;;;;0.32;0.32;;;;;;;19.23;30.41;94339.16;4892738;29;20065;-67
2022/02/02 06:15:18;;;;;;;0.40;0.40;;;;;;;19.26;30.16;94332.56;4902636;29;20042;-67
2022/02/02 06:17:48;;;;;;;0.57;0.30;;;;;;;19.25;30.70;94338.91;4900446;29;20036;-67
2022/02/02 06:20:14;;;;;;;0.20;0.20;;;;;;;19.27;30.44;94350.00;4898903;29;20036;-67
2022/02/02 06:22:42;;;;;;;0.20;0.20;;;;;;;19.24;30.62;94356.56;4902073;29;20047;-67
2022/02/02 06:25:28;;;;;;;0.55;0.30;;;;;;;19.34;30.37;94354.00;4898110;29;20042;-67
2022/02/02 06:28:02;;;;;;;0.50;0.40;;;;;;;19.27;30.66;94357.91;4907381;29;20044;-67
2022/02/02 06:30:28;;;;;;;0.30;0.30;;;;;;;19.27;30.63;94369.25;4906225;29;20036;-67
2022/02/02 06:33:07;;;;;;;0.35;0.35;;;;;;;19.27;30.83;94373.72;4908424;29;20078;-67
2022/02/02 06:35:35;;;;;;;0.65;0.22;;;;;;;19.25;31.00;94371.34;4907222;29;20136;-67
2022/02/02 06:38:10;;;;;;;0.30;0.30;;;;;;;19.26;30.79;94377.41;4900468;29;20037;-67
2022/02/02 06:40:37;;;;;;;1.13;0.30;;;;;;;19.26;30.44;94390.56;4915449;29;20141;-67
2022/02/02 06:43:04;;;;;;;0.30;0.30;;;;;;;19.26;30.68;94398.47;4897016;29;20031;-68
2022/02/02 06:45:29;;;;;;;0.52;0.40;;;;;;;19.29;30.74;94404.06;4921549;29;20040;-66
2022/02/02 06:47:54;;;;;;;0.38;0.35;;;;;;;19.29;30.53;94414.59;4900582;29;20035;-67
2022/02/02 06:50:30;;;;;;;0.38;0.38;;;;;;;19.31;30.56;94422.25;4914421;29;20039;-67
2022/02/02 07:10:33;;;;;;;0.40;0.40;;;;;;;19.33;30.66;94412.25;4934635;29;20176;-67
2022/02/02 07:21:01;;;;;;;0.88;0.40;;;;;;;19.32;30.82;94426.47;4924361;29;20053;-67
2022/02/02 07:28:58;;;;;;;0.30;0.30;;;;;;;19.33;31.82;94439.41;4913284;29;20126;-67
2022/02/02 07:34:22;;;;;;;0.45;0.45;;;;;;;19.32;31.08;94437.84;4918097;29;20043;-67
2022/02/02 07:36:50;;;;;;;0.30;0.30;;;;;;;19.26;31.15;94430.13;4913620;29;20050;-67
2022/02/02 07:39:15;;;;;;;0.40;0.40;;;;;;;19.22;31.25;94439.59;4922054;29;20032;-67
2022/02/02 07:41:46;;;;;;;0.50;0.50;;;;;;;19.17;31.46;94455.34;4909797;29;20028;-67
2022/02/02 07:44:15;;;;;;;0.30;0.30;;;;;;;19.18;31.54;94447.19;4909957;29;20039;-67
2022/02/02 07:46:44;;;;;;;1.55;0.40;;;;;;;19.10;31.61;94445.03;4916889;29;20122;-67
2022/02/02 07:49:09;;;;;;;0.40;0.40;;;;;;;19.10;31.42;94437.91;4923877;29;20039;-67
2022/02/02 07:51:38;;;;;;;0.40;0.40;;;;;;;19.08;31.70;94440.00;4916171;29;20042;-67
2022/02/02 07:54:08;;;;;;;1.10;0.43;;;;;;;19.12;31.73;94441.06;4910757;29;20040;-67
2022/02/02 07:56:40;;;;;;;0.50;0.50;;;;;;;19.13;31.35;94458.50;4913633;29;20050;-66
2022/02/02 08:01:54;;;;;;;0.93;0.57;;;;;;;19.07;31.65;94458.69;4908398;29;20083;-66
2022/02/02 08:04:22;;;;;;;1.25;0.40;;;;;;;19.07;31.58;94450.78;4937564;29;20047;-66
2022/02/02 08:06:52;;;;;;;0.60;0.50;;;;;;;19.04;31.78;94454.72;4915876;29;20024;-66
2022/02/02 08:09:42;;;;;;;0.83;0.50;;;;;;;19.10;31.66;94474.81;4902161;29;20036;-66
2022/02/02 08:12:20;;;;;;;0.47;0.40;;;;;;;19.10;31.67;94511.69;4917765;29;20313;-66
2022/02/02 08:14:54;;;;;;;0.68;0.50;;;;;;;19.07;31.76;94490.31;4912801;29;20043;-66
2022/02/02 08:17:19;;;;;;;0.50;0.50;;;;;;;19.03;31.57;94487.38;4920955;29;20110;-66
2022/02/02 08:19:45;;;;;;;0.50;0.50;;;;;;;19.03;31.98;94500.56;4913432;29;20028;-66
2022/02/02 08:22:10;;;;;;;0.50;0.40;;;;;;;19.03;31.90;94500.56;4914972;29;20027;-66
2022/02/02 08:24:35;;;;;;;1.50;0.60;;;;;;;19.06;31.83;94518.50;4899201;29;20036;-66
2022/02/02 08:27:01;;;;;;;0.65;0.50;;;;;;;19.09;31.86;94510.09;4909986;29;20047;-66
2022/02/02 08:29:35;;;;;;;0.55;0.55;;;;;;;19.07;31.84;94521.94;4918531;29;20034;-66
2022/02/02 08:32:02;;;;;;;0.63;0.50;;;;;;;19.06;31.89;94521.16;4907644;29;20036;-67
2022/02/02 08:34:27;;;;;;;1.00;0.60;;;;;;;19.10;31.66;94516.97;4901535;29;20034;-67
2022/02/02 08:36:55;;;;;;;1.30;0.60;;;;;;;19.12;31.71;94519.38;4899929;29;20031;-66
2022/02/02 08:41:53;;;;;;;0.65;0.50;;;;;;;19.13;31.93;94521.75;4905204;29;20030;-67
2022/02/02 08:44:24;;;;;;;0.80;0.57;;;;;;;19.22;31.81;94508.91;4905664;29;20035;-66
2022/02/02 08:47:07;;;;;;;0.63;0.40;;;;;;;19.23;31.60;94509.69;4920960;29;20118;-67
2022/02/02 08:49:42;;;;;;;0.52;0.40;;;;;;;19.19;31.77;94506.78;4914045;29;20043;-66
2022/02/02 08:52:09;;;;;;;0.82;0.50;;;;;;;19.23;31.77;94504.44;4920148;29;20074;-66
2022/02/02 08:54:59;;;;;;;0.50;0.50;;;;;;;19.20;31.73;94502.31;4923700;29;20043;-66
2022/02/02 08:57:57;;;;;;;0.50;0.47;;;;;;;19.25;31.75;94515.56;4918293;29;20271;-67
2022/02/02 09:00:13;;;;;;;0.60;0.50;;;;;;;19.26;31.58;94506.56;4926121;29;20024;-66
2022/02/02 09:02:52;;;;;;;0.52;0.40;;;;;;;19.24;31.42;94504.19;4927472;29;20043;-66
2022/02/02 09:05:25;;;;;;;1.15;0.45;;;;;;;19.28;31.83;94513.19;4928755;29;20043;-67
2022/02/02 09:07:51;;;;;;;0.90;0.52;;;;;;;19.27;31.66;94514.25;4928262;29;20035;-67
2022/02/02 09:20:00;;;;;;;0.40;0.40;;;;;;;19.29;31.60;94520.06;4892521;29;20284;-67
2022/02/02 09:24:25;;;;;;;0.93;0.60;;;;;;;19.29;31.64;94524.53;4926928;29;20118;-67
2022/02/02 09:35:18;;;;;;;0.70;0.50;;;;;;;19.33;31.84;94559.91;4918180;29;20039;-67
2022/02/02 09:37:45;;;;;;;0.77;0.55;;;;;;;19.34;31.52;94564.13;4895552;29;20035;-66
2022/02/02 09:42:42;;;;;;;0.40;0.40;;;;;;;19.32;31.29;94569.69;4903563;29;20036;-66
2022/02/02 09:45:13;;;;;;;0.40;0.40;;;;;;;19.34;31.60;94574.69;4890937;29;20025;-66
2022/02/02 09:47:47;;;;;;;0.50;0.47;;;;;;;19.29;31.72;94579.91;4931382;29;20036;-65
2022/02/02 09:50:23;;;;;;;1.08;0.50;;;;;;;19.32;31.56;94587.31;4892562;29;20073;-66
2022/02/02 09:52:55;;;;;;;1.15;0.50;;;;;;;19.31;31.80;94596.28;4897721;29;20028;-66
2022/02/02 09:55:55;;;;;;;0.95;0.52;;;;;;;19.30;31.75;94608.66;4925858;29;20139;-66
2022/02/02 09:58:25;;;;;;;0.98;0.43;;;;;;;19.34;31.82;94611.59;4913467;29;20040;-65
2022/02/02 10:09:55;;;;;;;0.68;0.50;;;;;;;19.30;31.80;94621.84;4907787;29;20036;-66
2022/02/02 10:15:04;;;;;;;0.35;0.30;;;;;;;19.39;31.85;94624.06;4897339;29;20043;-66
2022/02/02 10:17:31;;;;;;;0.63;0.40;;;;;;;19.32;31.84;94621.59;4879386;29;20039;-66
2022/02/02 10:19:57;;;;;;;1.35;0.60;;;;;;;19.36;31.65;94616.63;4892173;29;20058;-66
2022/02/02 10:22:25;;;;;;;0.77;0.40;;;;;;;19.36;31.90;94608.72;4896218;29;20036;-65
2022/02/02 10:24:53;;;;;;;0.80;0.47;;;;;;;19.38;31.78;94612.72;4876139;29;20028;-65
2022/02/02 10:27:34;;;;;;;0.38;0.38;;;;;;;19.39;31.70;94602.97;4880566;29;20039;-65
2022/02/02 10:30:08;;;;;;;0.63;0.50;;;;;;;19.45;31.92;94605.38;4905073;29;20048;-66
2022/02/02 10:32:43;;;;;;;0.40;0.40;;;;;;;19.37;31.91;94613.75;4892998;29;20050;-65
2022/02/02 10:35:26;;;;;;;1.42;0.40;;;;;;;19.39;31.87;94606.38;4877178;29;20158;-66
2022/02/02 10:38:16;;;;;;;0.88;0.50;;;;;;;19.43;31.92;94610.13;4873134;29;20056;-66
2022/02/02 10:41:02;;;;;;;0.65;0.40;;;;;;;19.36;31.98;94612.13;4899259;29;20592;-66
2022/02/02 10:49:22;;;;;;;0.68;0.40;;;;;;;19.36;32.22;94622.69;4915186;29;20032;-67
2022/02/02 10:51:57;;;;;;;0.50;0.43;;;;;;;19.44;32.03;94632.81;4919874;29;20028;-66
2022/02/02 10:57:02;;;;;;;0.50;0.40;;;;;;;19.40;31.94;94630.91;4905657;29;20091;-66
2022/02/02 10:59:55;;;;;;;0.80;0.50;;;;;;;19.39;32.12;94630.13;4894216;29;20031;-66
2022/02/02 11:07:50;;;;;;;0.50;0.40;;;;;;;19.40;32.18;94609.81;4910730;29;20098;-66
2022/02/02 11:10:15;;;;;;;1.10;0.50;;;;;;;19.38;32.04;94622.44;4886388;29;20044;-66
2022/02/02 11:12:41;;;;;;;0.60;0.50;;;;;;;19.34;31.98;94617.69;4891022;29;20032;-66
2022/02/02 11:15:11;;;;;;;0.95;0.47;;;;;;;19.29;32.35;94622.09;4891759;29;20032;-65
2022/02/02 11:18:14;;;;;;;0.90;0.50;;;;;;;19.40;32.33;94618.53;4889641;29;20083;-67
2022/02/02 11:20:41;;;;;;;1.20;0.50;;;;;;;19.36;32.03;94620.06;4910258;29;20036;-67
2022/02/02 11:23:06;;;;;;;0.50;0.40;;;;;;;19.32;32.27;94624.22;4916826;29;20063;-67
2022/02/02 11:25:33;;;;;;;0.68;0.40;;;;;;;19.33;32.26;94629.25;4891426;29;20024;-67
2022/02/02 11:28:00;;;;;;;0.95;0.32;;;;;;;19.34;32.22;94628.22;4909371;29;20028;-67
2022/02/02 11:30:28;;;;;;;0.40;0.40;;;;;;;19.37;32.11;94632.22;4924602;29;20040;-67
2022/02/02 11:33:15;;;;;;;0.30;0.30;;;;;;;19.44;32.22;94629.38;4923259;29;20067;-67
2022/02/02 11:35:50;;;;;;;0.50;0.40;;;;;;;19.30;32.08;94619.19;4910645;29;20035;-67
2022/02/02 11:38:27;;;;;;;1.05;0.30;;;;;;;19.35;32.23;94618.47;4910112;29;20083;-67
2022/02/02 11:43:45;;;;;;;1.38;0.40;;;;;;;19.36;32.49;94614.78;4901253;29;20047;-67
2022/02/02 11:46:17;;;;;;;0.75;0.45;;;;;;;19.39;32.39;94618.78;4911308;29;20020;-66
2022/02/02 11:49:00;;;;;;;1.25;0.50;;;;;;;19.34;32.30;94622.97;4911845;29;20036;-67
2022/02/02 11:51:41;;;;;;;0.45;0.40;;;;;;;19.33;32.33;94607.38;4908222;29;20039;-67
2022/02/02 11:54:11;;;;;;;0.73;0.40;;;;;;;19.34;32.23;94616.88;4894976;29;20064;-67
2022/02/02 11:57:04;;;;;;;0.60;0.40;;;;;;;19.44;32.37;94617.00;4888072;29;20104;-67
2022/02/02 11:59:54;;;;;;;1.05;0.40;;;;;;;19.34;32.39;94615.03;4905660;29;20040;-67
2022/02/02 12:03:05;;;;;;;1.00;0.43;;;;;;;19.28;32.55;94612.59;4891818;29;20067;-68
2022/02/02 12:28:01;;;;;;;;;;;;;;;;;;;;;
2022/02/02 12:57:32;;;;;;;0.30;0.30;;;;;;;19.29;32.56;94619.47;4898057;29;20039;-67
2022/02/02 13:00:09;;;;;;;0.65;0.30;;;;;;;19.33;32.48;94620.56;4904102;29;20037;-67
2022/02/02 13:02:45;;;;;;;0.30;0.30;;;;;;;19.31;32.69;94612.09;4895754;29;20131;-68
2022/02/02 13:05:11;;;;;;;0.70;0.30;;;;;;;19.30;32.81;94616.56;4920226;28;20032;-67
2022/02/02 13:07:37;;;;;;;0.47;0.32;;;;;;;19.30;32.78;94606.00;4909825;29;20066;-67
2022/02/02 13:10:07;;;;;;;0.88;0.30;;;;;;;19.25;32.86;94613.09;4923992;29;20043;-67
2022/02/02 13:12:42;;;;;;;0.30;0.30;;;;;;;19.23;33.01;94615.16;4912348;29;20172;-67
2022/02/02 13:15:31;;;;;;;0.50;0.40;;;;;;;19.28;32.87;94620.50;4893567;29;20341;-67
2022/02/02 13:23:35;;;;;;;0.38;0.30;;;;;;;19.24;32.98;94635.22;4926713;29;20099;-67
2022/02/02 13:26:05;;;;;;;0.40;0.30;;;;;;;19.26;32.90;94619.94;4901992;29;20021;-68
2022/02/02 13:37:47;;;;;;;0.25;0.25;;;;;;;19.23;33.03;94644.97;4908074;29;20067;-67
2022/02/02 13:45:47;;;;;;;0.25;0.25;;;;;;;19.18;33.08;94647.53;4923288;29;20122;-67
2022/02/02 14:01:49;;;;;;;0.30;0.20;;;;;;;19.25;32.94;94655.28;4892657;29;20537;-68
2022/02/02 14:31:22;;;;;;;0.30;0.20;;;;;;;19.28;33.23;94696.97;4857431;29;20239;-67
2022/02/02 14:33:49;;;;;;;0.30;0.30;;;;;;;19.27;33.15;94698.00;4868329;29;20048;-67
2022/02/02 14:36:21;;;;;;;0.30;0.30;;;;;;;19.27;33.07;94698.00;4862850;29;20128;-67
2022/02/02 14:38:53;;;;;;;0.45;0.30;;;;;;;19.26;32.90;94713.00;4868793;29;20032;-68
2022/02/02 14:49:20;;;;;;;0.50;0.28;;;;;;;19.25;33.19;94708.00;4900742;29;20046;-67
2022/02/02 14:52:10;;;;;;;0.28;0.20;;;;;;;19.24;33.21;94690.59;4891331;29;20032;-67
2022/02/02 14:54:50;;;;;;;0.30;0.20;;;;;;;19.31;33.12;94692.00;4907455;29;20039;-69
2022/02/02 15:32:01;;;;;;;1.15;0.80;;;;;;;19.22;33.41;94719.03;4910994;28;20031;-67
2022/02/02 15:34:48;;;;;;;0.50;0.50;;;;;;;19.21;33.37;94735.88;4917469;28;20043;-67
2022/02/02 15:39:43;;;;;;;0.82;0.80;;;;;;;19.23;33.31;94737.25;4904809;29;20024;-67
2022/02/02 16:03:26;;;;;;;2.15;1.60;;;;;;;19.22;33.57;94738.28;4895060;29;20203;-67
2022/02/02 16:05:59;;;;;;;2.03;1.70;;;;;;;19.23;33.29;94741.69;4894155;29;20031;-67
2022/02/02 16:08:27;;;;;;;2.15;1.90;;;;;;;19.28;33.33;94741.78;4895115;29;20034;-67
2022/02/02 16:11:15;;;;;;;1.85;1.55;;;;;;;19.27;33.27;94737.56;4912719;29;20083;-67
2022/02/02 16:13:48;;;;;;;2.08;1.88;;;;;;;19.28;33.35;94742.56;4914226;29;20121;-67
2022/02/02 16:37:11;;;;;;;1.20;1.10;;;;;;;19.28;33.45;94781.34;4908134;29;20102;-68
2022/02/02 16:39:49;;;;;;;0.98;0.98;;;;;;;19.30;33.63;94784.53;4912236;29;20039;-69
2022/02/02 16:44:59;;;;;;;2.53;1.13;;;;;;;19.08;34.37;94782.66;4925415;28;20038;-66
2022/02/02 16:47:24;;;;;;;3.00;1.60;;;;;;;19.17;34.29;94792.78;4894251;29;20035;-66
2022/02/02 16:49:49;;;;;;;2.50;1.20;;;;;;;19.22;34.14;94792.84;4896343;29;20024;-67
2022/02/02 16:52:19;;;;;;;1.55;1.20;;;;;;;19.26;34.01;94802.66;4920941;29;20028;-68
2022/02/02 16:55:06;;;;;;;2.58;0.90;;;;;;;19.30;33.42;94795.84;4905064;29;20046;-68
2022/02/02 16:58:03;;;;;;;1.40;0.88;;;;;;;19.30;33.80;94816.94;4902233;29;20051;-68
2022/02/02 17:26:47;;;;;;;2.30;0.90;;;;;;;19.33;33.89;94823.59;4917103;29;20046;-68
2022/02/02 17:30:53;;;;;;;1.30;1.10;;;;;;;19.32;33.68;94820.19;4922870;29;20106;-68
2022/02/02 17:33:15;;;;;;;1.35;1.05;;;;;;;19.34;33.62;94819.91;4895400;29;20036;-69
2022/02/02 17:36:01;;;;;;;;;;;;;;;;;;;;;
2022/02/02 18:20:38;;;;;;;1.13;0.70;;;;;;;19.38;33.82;94871.16;4912881;29;20121;-68
2022/02/02 18:23:08;;;;;;;0.52;0.52;;;;;;;19.42;33.65;94869.63;4915040;29;20035;-68
2022/02/02 18:28:39;;;;;;;0.73;0.60;;;;;;;19.43;33.70;94873.06;4939025;29;20058;-68
2022/02/02 18:45:13;;;;;;;;;;;;;;;;;;;;;
2022/02/02 20:04:17;;;;;;;;;;;;;;;;;;;;;
2022/02/02 20:11:29;;;;;;;0.40;0.40;;;;;;;19.53;33.65;94879.28;4934328;29;20055;-68
2022/02/02 20:13:55;;;;;;;0.60;0.30;;;;;;;19.52;33.63;94882.94;4913240;29;21108;-67
2022/02/02 20:16:20;;;;;;;0.38;0.38;;;;;;;19.54;33.73;94886.16;4927926;29;20032;-68
2022/02/02 20:18:51;;;;;;;0.60;0.40;;;;;;;19.51;33.84;94885.81;4929034;28;20039;-68
2022/02/02 20:21:32;;;;;;;0.40;0.40;;;;;;;19.52;33.71;94882.94;4925518;29;20039;-68
2022/02/02 20:23:58;;;;;;;0.40;0.40;;;;;;;19.56;33.62;94875.34;4931465;29;20142;-68
2022/02/02 20:26:27;;;;;;;0.40;0.40;;;;;;;19.56;33.83;94885.91;4928330;28;20023;-68
2022/02/02 20:28:52;;;;;;;0.40;0.40;;;;;;;19.58;33.72;94881.19;4915640;29;20050;-68
2022/02/02 20:31:18;;;;;;;0.63;0.32;;;;;;;19.62;33.45;94886.78;4926509;29;20048;-68
2022/02/02 20:33:43;;;;;;;0.40;0.40;;;;;;;19.64;33.78;94882.06;4894470;29;20040;-68
2022/02/02 20:36:15;;;;;;;0.40;0.40;;;;;;;19.65;33.88;94881.03;4928207;29;20031;-68
2022/02/02 20:38:40;;;;;;;0.40;0.40;;;;;;;19.67;33.50;94890.28;4924220;29;21324;-68
2022/02/02 20:41:06;;;;;;;0.35;0.35;;;;;;;19.71;33.42;94894.03;4911173;29;20028;-68
2022/02/02 20:43:37;;;;;;;0.50;0.50;;;;;;;19.71;33.65;94898.53;4930074;28;20036;-68
2022/02/02 21:05:51;;;;;;;1.20;1.10;;;;;;;19.64;33.69;94906.59;4913279;29;20037;-68
2022/02/02 21:10:28;;;;;;;0.90;0.90;;;;;;;19.62;33.58;94905.25;4921911;29;20035;-68
2022/02/02 21:15:55;;;;;;;1.38;1.00;;;;;;;19.60;33.75;94913.41;4945345;28;20071;-68
2022/02/02 21:18:29;;;;;;;1.20;1.10;;;;;;;19.57;33.64;94908.59;4944620;28;20047;-68
2022/02/02 21:21:17;;;;;;;1.10;1.00;;;;;;;19.60;33.36;94917.88;4934248;29;20057;-68
2022/02/02 21:29:11;;;;;;;0.90;0.90;;;;;;;19.56;33.95;94906.22;4935027;29;20113;-67
2022/02/02 21:31:36;;;;;;;1.00;1.00;;;;;;;19.57;33.88;94902.53;4928437;28;20043;-68
2022/02/02 21:34:02;;;;;;;1.15;1.10;;;;;;;19.58;33.70;94891.75;4926998;29;20054;-68
2022/02/02 21:36:28;;;;;;;0.80;0.80;;;;;;;19.57;33.75;94891.97;4930750;29;20339;-68
2022/02/02 21:41:23;;;;;;;1.00;0.90;;;;;;;19.60;33.94;94884.38;4929197;29;20039;-68
2022/02/02 21:43:58;;;;;;;1.00;0.90;;;;;;;19.64;33.78;94884.69;4930173;29;20200;-68
2022/02/02 21:46:25;;;;;;;0.73;0.73;;;;;;;19.62;33.62;94882.28;4932101;29;20039;-68
2022/02/02 21:48:51;;;;;;;0.80;0.70;;;;;;;19.62;33.78;94879.66;4935630;29;20039;-68
2022/02/02 21:51:26;;;;;;;0.68;0.68;;;;;;;19.65;33.50;94875.75;4905553;29;20095;-68
2022/02/02 21:53:51;;;;;;;0.70;0.70;;;;;;;19.66;33.59;94874.69;4916830;29;20056;-68
2022/02/02 21:56:17;;;;;;;0.70;0.70;;;;;;;19.67;33.54;94874.47;4896375;28;20054;-68
2022/02/02 21:58:42;;;;;;;0.88;0.63;;;;;;;19.69;33.82;94868.94;4913337;29;20100;-68
2022/02/02 22:01:07;;;;;;;0.70;0.70;;;;;;;19.71;33.42;94869.50;4893013;29;20043;-68
2022/02/02 22:03:33;;;;;;;0.73;0.73;;;;;;;19.71;33.67;94865.00;4912910;29;20043;-68
2022/02/02 22:05:58;;;;;;;0.70;0.70;;;;;;;19.73;33.51;94864.81;4915676;29;20028;-68
2022/02/02 22:08:24;;;;;;;0.80;0.60;;;;;;;19.74;33.66;94866.38;4913978;29;20134;-68
2022/02/02 22:10:49;;;;;;;0.60;0.60;;;;;;;19.75;33.44;94873.28;4931719;29;20047;-68
2022/02/02 22:13:16;;;;;;;0.50;0.50;;;;;;;19.76;33.56;94874.84;4945376;28;20094;-68
2022/02/02 22:15:50;;;;;;;0.50;0.50;;;;;;;19.77;33.69;94878.31;4926772;29;20039;-68
2022/02/02 22:18:17;;;;;;;0.77;0.70;;;;;;;19.79;33.42;94871.75;4912021;29;20036;-68
2022/02/02 22:20:44;;;;;;;0.50;0.50;;;;;;;19.80;33.45;94872.53;4935869;29;20030;-68
2022/02/02 22:23:09;;;;;;;0.63;0.60;;;;;;;19.85;33.33;94867.34;4908736;29;20043;-68
2022/02/02 22:25:34;;;;;;;0.70;0.65;;;;;;;19.87;33.44;94876.59;4941876;29;20035;-68
2022/02/02 22:28:00;;;;;;;0.60;0.60;;;;;;;19.92;33.16;94879.31;4938870;29;20027;-68
2022/02/02 22:30:25;;;;;;;0.60;0.60;;;;;;;19.94;33.16;94884.34;4942399;29;20039;-68
2022/02/02 22:32:51;;;;;;;0.52;0.52;;;;;;;19.96;33.31;94881.47;4923968;29;20039;-68
2022/02/02 22:35:16;;;;;;;0.50;0.50;;;;;;;19.99;33.28;94887.06;4941661;29;20059;-68
2022/02/02 22:37:41;;;;;;;0.60;0.60;;;;;;;19.99;33.03;94889.69;4910642;29;20043;-68
2022/02/02 22:40:08;;;;;;;0.50;0.50;;;;;;;20.02;33.33;94885.75;4946086;29;20425;-68
2022/02/02 22:42:34;;;;;;;0.50;0.50;;;;;;;20.01;32.98;94879.69;4939642;29;20023;-68
2022/02/02 22:45:03;;;;;;;0.47;0.47;;;;;;;20.02;32.53;94880.50;4946448;29;20086;-68
2022/02/02 22:47:32;;;;;;;0.50;0.50;;;;;;;20.00;32.99;94877.28;4929569;29;20115;-68
2022/02/02 22:49:58;;;;;;;1.40;0.50;;;;;;;20.04;33.10;94873.91;4915192;29;20039;-68
2022/02/02 22:52:23;;;;;;;0.50;0.50;;;;;;;20.05;33.25;94870.25;4934070;29;20023;-68
2022/02/02 22:54:49;;;;;;;0.60;0.60;;;;;;;20.08;32.81;94863.66;4914375;29;20034;-68
2022/02/02 22:57:23;;;;;;;1.17;0.45;;;;;;;20.07;33.14;94862.88;4914611;29;20038;-68
2022/02/02 22:59:51;;;;;;;0.40;0.40;;;;;;;20.08;32.85;94855.75;4923750;29;20027;-68
2022/02/02 23:04:45;;;;;;;0.40;0.40;;;;;;;20.11;32.69;94863.19;4913572;29;20035;-68
2022/02/02 23:07:10;;;;;;;0.43;0.43;;;;;;;20.12;32.87;94848.91;4912877;29;20062;-68
2022/02/02 23:09:37;;;;;;;0.43;0.43;;;;;;;20.11;32.66;94849.97;4923134;29;20036;-68
2022/02/02 23:12:02;;;;;;;0.52;0.52;;;;;;;20.11;32.79;94852.63;4940817;28;20115;-68
2022/02/02 23:14:33;;;;;;;0.50;0.50;;;;;;;20.13;32.74;94855.81;4922682;29;20031;-68
2022/02/02 23:17:06;;;;;;;0.50;0.45;;;;;;;20.15;32.72;94856.34;4928291;29;20090;-68
2022/02/02 23:19:35;;;;;;;0.57;0.50;;;;;;;20.15;33.03;94851.06;4921847;29;20041;-68
2022/02/02 23:22:01;;;;;;;0.57;0.50;;;;;;;20.14;32.84;94852.09;4937403;29;20035;-68
2022/02/02 23:24:30;;;;;;;0.40;0.40;;;;;;;20.17;32.67;94851.63;4935129;28;20035;-68
2022/02/02 23:26:56;;;;;;;1.10;0.50;;;;;;;20.19;32.56;94846.91;4915227;29;20062;-68
2022/02/02 23:29:22;;;;;;;0.50;0.50;;;;;;;20.17;32.66;94854.28;4919810;29;20059;-68
2022/02/02 23:31:50;;;;;;;0.40;0.40;;;;;;;20.13;32.76;94860.31;4914263;29;20036;-68
2022/02/02 23:34:19;;;;;;;0.30;0.30;;;;;;;20.13;32.59;94861.09;4930098;29;20151;-68
2022/02/02 23:36:48;;;;;;;0.30;0.30;;;;;;;20.17;32.72;94870.09;4911438;29;20059;-68
2022/02/02 23:39:15;;;;;;;0.40;0.40;;;;;;;20.18;32.59;94871.72;4910598;29;20036;-68